Time;durP1;ratioP1;P1;durP2;ratioP2;P2;SDS_P1;SDS_P2;PMS_P1;PMS_P2;Temp;Humidity;BMP_temperature;BMP_pressure;BME280_temperature;BME280_humidity;BME280_pressure;Samples;Min_cycle;Max_cycle;Signal;HPM_P1;HPM_P2
2021/07/02 00:00:13;;;;;;;16.90;7.82;;;18.40;99.90;;;18.72;78.09;101556.56;5113397;28;20044;-71
2021/07/02 00:02:42;;;;;;;14.93;8.35;;;18.40;99.90;;;18.64;78.18;101559.47;5113401;28;20043;-71
2021/07/02 00:05:13;;;;;;;12.35;8.45;;;18.40;99.90;;;18.72;78.18;101554.78;5113340;28;20120;-71
2021/07/02 00:07:41;;;;;;;14.23;8.07;;;18.40;99.90;;;18.67;78.34;101551.34;5113413;28;20048;-71
2021/07/02 00:10:13;;;;;;;12.20;8.00;;;18.40;99.90;;;18.69;78.14;101552.19;5113323;28;20043;-71
2021/07/02 00:12:43;;;;;;;11.75;8.05;;;18.40;99.90;;;18.72;78.09;101556.56;5113098;28;20052;-71
2021/07/02 00:15:14;;;;;;;12.82;8.18;;;18.40;99.90;;;18.73;77.83;101561.03;5113266;28;20051;-71
2021/07/02 00:17:43;;;;;;;13.13;8.88;;;18.40;99.90;;;18.69;77.89;101552.19;5113128;28;20058;-71
2021/07/02 00:20:13;;;;;;;12.43;8.50;;;18.40;99.90;;;18.18;78.04;101457.06;5113213;28;20068;-71
2021/07/02 00:22:42;;;;;;;;;;;18.40;99.90;;;18.55;78.01;101532.91;5113658;28;20071;-71
2021/07/02 00:25:12;;;;;;;19.30;11.93;;;18.50;99.90;;;18.54;78.46;101554.41;5113167;28;19920;-71
2021/07/02 00:27:42;;;;;;;22.33;11.98;;;18.30;99.90;;;18.40;79.17;101552.03;5095233;28;20442;-71
2021/07/02 00:30:12;;;;;;;20.77;13.45;;;18.20;99.90;;;18.48;79.16;101549.19;5112572;28;20048;-71
2021/07/02 00:32:41;;;;;;;21.88;14.48;;;18.20;99.90;;;18.44;79.27;101545.72;5114314;28;20047;-71
2021/07/02 00:35:10;;;;;;;22.25;15.50;;;18.10;99.90;;;18.52;79.36;101554.44;5117161;28;20182;-71
2021/07/02 00:37:39;;;;;;;23.87;14.53;;;18.20;99.90;;;18.39;79.46;101544.91;5117104;28;20044;-71
2021/07/02 00:40:10;;;;;;;25.63;15.07;;;18.10;99.90;;;18.28;79.83;101544.31;5098639;28;20397;-71
2021/07/02 00:42:38;;;;;;;19.02;13.75;;;18.00;99.90;;;18.26;80.20;101543.47;5117018;28;20059;-71
2021/07/02 00:45:10;;;;;;;21.25;15.02;;;18.00;99.90;;;18.24;80.33;101547.09;5116948;28;20050;-71
2021/07/02 00:47:39;;;;;;;20.67;13.98;;;17.90;99.90;;;18.21;80.42;101541.81;5098949;28;20126;-71
2021/07/02 00:50:09;;;;;;;19.05;14.30;;;17.90;99.90;;;18.30;80.47;101536.22;5098854;28;20051;-72
2021/07/02 00:52:39;;;;;;;20.30;15.13;;;17.90;99.90;;;18.33;80.59;101547.75;5116500;28;20109;-71
2021/07/02 00:55:10;;;;;;;21.53;14.57;;;17.90;99.90;;;18.35;80.46;101548.59;5098211;28;20071;-71
2021/07/02 00:57:39;;;;;;;22.05;14.88;;;17.90;99.90;;;18.25;80.40;101522.09;5098132;28;20051;-71
2021/07/02 01:00:11;;;;;;;19.67;13.55;;;18.00;99.90;;;18.29;80.69;101538.00;5116803;28;20054;-71
2021/07/02 01:02:40;;;;;;;23.95;14.30;;;17.90;99.90;;;18.27;80.95;101542.56;5116663;28;20077;-71
2021/07/02 01:05:11;;;;;;;22.70;13.80;;;17.90;99.90;;;18.15;81.04;101510.72;5098423;28;20417;-71
2021/07/02 01:07:43;;;;;;;24.05;15.55;;;17.90;99.90;;;18.34;80.86;101538.81;5098270;28;20597;-71
2021/07/02 01:10:16;;;;;;;21.30;14.73;;;18.00;99.90;;;18.29;80.77;101529.97;5098151;28;20140;-71
2021/07/02 01:12:46;;;;;;;16.85;13.35;;;18.00;99.90;;;18.39;80.68;101542.22;5098222;28;20043;-71
2021/07/02 01:15:25;;;;;;;14.27;10.38;;;18.00;99.90;;;18.25;81.10;101536.38;5116305;28;20070;-71
2021/07/02 01:18:06;;;;;;;12.65;8.82;;;17.90;99.90;;;18.23;81.46;101532.84;5098417;28;20051;-71
2021/07/02 01:20:36;;;;;;;10.90;7.60;;;17.90;99.90;;;18.16;82.09;101533.00;5098071;28;20043;-71
2021/07/02 01:23:06;;;;;;;9.18;7.13;;;17.90;99.90;;;18.15;82.43;101528.59;5097929;28;20382;-71
2021/07/02 01:25:36;;;;;;;8.63;6.93;;;17.80;99.90;;;17.96;82.46;101494.22;5097841;28;20051;-71
2021/07/02 01:28:09;;;;;;;8.73;6.78;;;17.80;99.90;;;18.20;82.64;101529.34;5114946;28;20054;-71
2021/07/02 01:30:41;;;;;;;7.60;6.65;;;17.80;99.90;;;18.12;83.05;101534.88;5115779;28;20139;-71
2021/07/02 01:33:11;;;;;;;6.85;6.22;;;17.80;99.90;;;17.96;82.92;101510.28;5097702;28;20182;-71
2021/07/02 01:35:41;;;;;;;6.43;5.72;;;17.80;99.90;;;18.08;83.02;101533.19;5097740;28;20481;-71
2021/07/02 01:38:13;;;;;;;6.32;5.50;;;17.70;99.90;;;18.14;82.91;101537.56;5097709;28;20051;-71
2021/07/02 01:40:44;;;;;;;6.63;6.00;;;17.80;99.90;;;18.07;83.23;101539.47;5097543;28;20121;-71
2021/07/02 01:43:14;;;;;;;9.10;6.85;;;17.80;99.90;;;18.17;82.68;101524.06;5097091;28;20039;-71
2021/07/02 01:45:43;;;;;;;7.47;6.20;;;17.90;99.90;;;18.25;82.44;101532.78;5114544;28;20044;-71
2021/07/02 01:48:12;;;;;;;6.85;6.15;;;17.90;99.90;;;18.23;82.24;101524.81;5097614;28;20122;-71
2021/07/02 01:50:41;;;;;;;8.15;7.18;;;17.90;99.90;;;18.28;82.12;101528.22;5097353;28;20160;-71
2021/07/02 01:53:16;;;;;;;10.25;7.60;;;18.00;99.90;;;18.34;81.98;101528.09;5097417;28;20428;-71
2021/07/02 01:55:45;;;;;;;11.70;9.55;;;18.00;99.90;;;18.33;81.91;101528.13;5097098;28;20398;-71
2021/07/02 01:58:15;;;;;;;12.82;9.02;;;18.00;99.90;;;18.38;81.82;101519.06;5097325;28;20073;-71
2021/07/02 02:00:50;;;;;;;10.15;8.30;;;18.00;99.90;;;18.42;81.50;101526.13;5114366;28;20047;-71
2021/07/02 02:03:22;;;;;;;12.80;9.70;;;18.10;99.90;;;18.41;81.43;101516.28;5097320;28;20051;-71
2021/07/02 02:05:53;;;;;;;14.52;10.07;;;18.10;99.90;;;18.40;81.48;101517.22;5115410;28;20436;-71
2021/07/02 02:08:22;;;;;;;12.65;9.75;;;18.10;99.90;;;18.42;81.33;101519.84;5097019;28;20051;-71
2021/07/02 02:10:53;;;;;;;11.75;10.52;;;18.10;99.90;;;18.29;81.54;101515.72;5115342;28;20047;-71
2021/07/02 02:13:26;;;;;;;11.55;10.25;;;18.00;99.90;;;18.30;81.41;101509.44;5096971;28;20550;-71
2021/07/02 02:16:06;;;;;;;13.65;9.63;;;18.00;99.90;;;18.31;81.40;101514.75;5096939;28;20062;-71
2021/07/02 02:18:35;;;;;;;12.05;9.88;;;18.00;99.90;;;18.38;81.32;101519.06;5096880;28;20450;-72
2021/07/02 02:21:04;;;;;;;13.35;10.10;;;18.00;99.90;;;18.37;81.49;101514.59;5096802;28;20455;-71
2021/07/02 02:23:36;;;;;;;14.27;10.13;;;18.00;99.90;;;18.13;81.93;101491.13;5097066;28;20511;-71
2021/07/02 02:26:06;;;;;;;13.43;9.77;;;17.90;99.90;;;18.25;81.98;101514.03;5096599;28;20047;-71
2021/07/02 02:28:34;;;;;;;13.40;9.73;;;17.90;99.90;;;18.22;82.07;101514.09;5096727;28;20041;-71
2021/07/02 02:31:03;;;;;;;14.77;10.30;;;17.90;99.90;;;18.27;81.86;101514.88;5114928;28;20047;-72
2021/07/02 02:33:36;;;;;;;13.10;10.00;;;17.90;99.90;;;18.25;82.11;101508.69;5096631;28;20060;-71
2021/07/02 02:36:05;;;;;;;14.30;9.57;;;17.90;99.90;;;18.23;82.11;101511.41;5115080;28;20048;-72
2021/07/02 02:38:36;;;;;;;10.88;9.88;;;17.90;99.90;;;18.31;81.86;101511.22;5115045;28;20493;-71
2021/07/02 02:41:05;;;;;;;11.25;10.15;;;17.90;99.90;;;18.33;81.79;101501.34;5096369;28;20184;-72
2021/07/02 02:43:34;;;;;;;10.93;9.65;;;18.00;99.90;;;18.40;81.57;101503.81;5114396;28;20084;-71
2021/07/02 02:46:02;;;;;;;10.38;9.32;;;18.00;99.90;;;18.38;81.57;101507.44;5096401;28;20096;-72
2021/07/02 02:48:31;;;;;;;14.27;8.93;;;18.00;99.90;;;18.43;81.30;101506.44;5096251;28;20039;-71
2021/07/02 02:51:00;;;;;;;12.85;9.50;;;18.10;99.90;;;18.42;81.40;101503.78;5096255;28;20048;-72
2021/07/02 02:53:29;;;;;;;9.82;8.88;;;18.00;99.90;;;18.40;81.56;101509.19;5114430;28;20122;-71
2021/07/02 02:55:59;;;;;;;13.60;9.63;;;18.10;99.90;;;18.44;81.21;101504.66;5113153;28;20565;-71
2021/07/02 02:58:27;;;;;;;10.82;9.73;;;18.10;99.90;;;18.46;81.40;101505.47;5095904;28;20054;-71
2021/07/02 03:00:56;;;;;;;10.25;9.18;;;18.10;99.90;;;18.49;81.38;101508.97;5095925;28;20051;-71
2021/07/02 03:03:25;;;;;;;10.20;9.20;;;18.10;99.90;;;18.50;81.12;101502.69;5095946;28;20046;-71
2021/07/02 03:06:08;;;;;;;10.63;9.48;;;18.10;99.90;;;18.51;81.12;101500.88;5095757;28;20044;-71
2021/07/02 03:08:38;;;;;;;10.63;8.98;;;18.20;99.90;;;18.53;80.96;101507.06;5114442;28;20046;-72
2021/07/02 03:11:07;;;;;;;11.38;9.93;;;18.20;99.90;;;18.43;81.17;101485.00;5114401;28;20039;-72
2021/07/02 03:13:37;;;;;;;11.45;8.65;;;18.20;99.90;;;18.52;81.21;101506.22;5095907;28;20043;-72
2021/07/02 03:16:08;;;;;;;13.77;10.07;;;18.20;99.90;;;18.38;81.46;101504.75;5095823;28;20071;-72
2021/07/02 03:18:45;;;;;;;12.32;10.27;;;18.10;99.90;;;18.32;81.94;101504.94;5095760;28;20047;-71
2021/07/02 03:21:14;;;;;;;12.80;10.93;;;18.00;99.90;;;18.36;81.96;101504.81;5095739;28;20374;-71
2021/07/02 03:23:43;;;;;;;16.20;12.48;;;18.00;99.90;;;18.28;82.09;101498.78;5113944;28;20050;-71
2021/07/02 03:26:16;;;;;;;15.80;12.25;;;18.00;99.90;;;18.16;82.68;101498.19;5095447;28;20131;-71
2021/07/02 03:28:48;;;;;;;17.60;12.15;;;17.90;99.90;;;18.21;82.79;101504.31;5113850;28;20116;-71
2021/07/02 03:31:17;;;;;;;17.60;11.60;;;17.90;99.90;;;18.24;82.78;101498.88;5095053;28;20056;-71
2021/07/02 03:33:48;;;;;;;17.13;12.00;;;17.90;99.90;;;18.31;82.81;101501.34;5095532;28;20043;-71
2021/07/02 03:36:17;;;;;;;16.08;13.02;;;17.90;99.90;;;18.36;82.58;101498.56;5095633;28;20048;-71
2021/07/02 03:38:47;;;;;;;13.65;12.13;;;18.00;99.90;;;18.26;82.37;101487.22;5095320;28;20051;-71
2021/07/02 03:41:17;;;;;;;14.35;11.95;;;18.00;99.90;;;18.34;82.53;101506.66;5095355;28;20069;-71
2021/07/02 03:43:46;;;;;;;15.90;12.18;;;18.00;99.90;;;18.36;82.58;101507.50;5095411;28;20044;-71
2021/07/02 03:46:16;;;;;;;15.95;11.98;;;18.00;99.90;;;18.42;82.40;101511.81;5095388;28;20130;-71
2021/07/02 03:48:45;;;;;;;14.10;11.30;;;18.10;99.90;;;18.32;83.07;101505.81;5095589;28;20073;-71
2021/07/02 03:51:13;;;;;;;19.02;11.15;;;18.00;99.90;;;18.34;82.82;101514.69;5095252;28;20039;-71
2021/07/02 03:53:42;;;;;;;13.73;9.98;;;18.00;99.90;;;18.28;82.90;101514.84;5113535;28;20087;-71
2021/07/02 03:56:11;;;;;;;11.23;9.15;;;17.90;99.90;;;18.34;82.59;101505.75;5113460;28;20048;-71
2021/07/02 03:58:40;;;;;;;13.27;9.30;;;18.00;99.90;;;18.36;82.73;101517.31;5113371;28;20051;-72
2021/07/02 04:01:09;;;;;;;11.27;9.70;;;18.10;99.90;;;18.33;82.93;101514.75;5112857;28;20125;-71
2021/07/02 04:03:37;;;;;;;9.68;8.32;;;18.00;99.90;;;18.40;82.84;101511.84;5113116;28;20396;-71
2021/07/02 04:06:06;;;;;;;12.60;9.13;;;18.10;99.90;;;18.47;82.70;101520.63;5095352;28;20108;-71
2021/07/02 04:08:35;;;;;;;12.93;8.68;;;18.10;99.90;;;18.43;82.47;101514.47;5117551;28;20071;-72
2021/07/02 04:11:06;;;;;;;8.53;7.47;;;18.20;99.90;;;18.40;82.81;101514.53;5117678;28;20118;-71
2021/07/02 04:13:35;;;;;;;7.57;6.80;;;18.10;99.90;;;18.46;82.75;101543.00;5099345;28;20282;-71
2021/07/02 04:16:06;;;;;;;8.13;6.82;;;18.10;99.90;;;18.45;82.75;101526.03;5117506;28;20485;-71
2021/07/02 04:18:34;;;;;;;7.65;6.60;;;18.20;99.90;;;18.49;82.71;101516.09;5117474;28;20060;-71
2021/07/02 04:21:03;;;;;;;11.23;7.32;;;18.20;99.90;;;18.49;82.67;101522.34;5117517;28;20473;-71
2021/07/02 04:23:31;;;;;;;8.10;7.35;;;18.20;99.90;;;18.49;82.75;101526.81;5117371;28;20047;-71
2021/07/02 04:26:00;;;;;;;7.88;7.18;;;18.20;99.90;;;18.43;83.04;101521.63;5117325;28;20123;-71
2021/07/02 04:28:28;;;;;;;8.75;7.95;;;18.10;99.90;;;18.45;83.32;101531.38;5117307;28;20051;-71
2021/07/02 04:30:56;;;;;;;9.80;8.90;;;18.10;99.90;;;18.46;83.18;101522.44;5116968;28;20439;-71
2021/07/02 04:33:26;;;;;;;9.57;8.57;;;18.20;99.90;;;18.43;83.41;101527.88;5117218;28;20079;-71
2021/07/02 04:35:54;;;;;;;11.83;8.63;;;18.10;99.90;;;18.43;83.44;101526.97;5117171;28;20058;-71
2021/07/02 04:38:23;;;;;;;9.63;8.70;;;18.10;99.90;;;18.48;83.34;101525.97;5117046;28;20433;-71
2021/07/02 04:40:52;;;;;;;10.98;8.70;;;18.10;99.90;;;18.47;83.25;101521.50;5116960;28;20104;-71
2021/07/02 04:43:20;;;;;;;9.98;8.90;;;18.10;99.90;;;18.43;83.58;101527.88;5116965;28;20074;-71
2021/07/02 04:45:48;;;;;;;11.85;9.00;;;18.10;99.90;;;18.51;83.42;101525.88;5116952;28;20043;-71
2021/07/02 04:48:26;;;;;;;10.40;9.30;;;18.10;99.90;;;18.45;83.51;101511.75;5116981;28;20040;-71
2021/07/02 04:50:55;;;;;;;11.93;9.57;;;18.20;99.90;;;18.54;83.37;101520.41;5116980;28;20047;-71
2021/07/02 04:53:23;;;;;;;11.02;9.93;;;18.20;99.90;;;18.40;83.53;101490.41;5116842;28;20282;-71
2021/07/02 04:55:52;;;;;;;11.80;10.60;;;18.20;99.90;;;18.58;83.47;101521.25;5116718;28;20160;-71
2021/07/02 04:58:21;;;;;;;11.52;10.35;;;18.20;99.90;;;18.58;83.55;101516.75;5116737;28;20081;-71
2021/07/02 05:00:50;;;;;;;12.75;11.18;;;18.20;99.90;;;18.60;83.73;101524.75;5116315;28;20488;-72
2021/07/02 05:03:18;;;;;;;11.88;10.60;;;18.20;99.90;;;18.60;83.78;101520.25;5116368;28;20138;-71
2021/07/02 05:05:48;;;;;;;10.48;9.48;;;18.20;99.90;;;18.64;83.62;101519.25;5098295;28;20044;-71
2021/07/02 05:08:17;;;;;;;11.93;10.67;;;18.30;99.90;;;18.69;83.51;101519.16;5116568;28;20036;-71
2021/07/02 05:10:46;;;;;;;11.38;10.27;;;18.30;99.90;;;18.72;83.15;101524.41;5098178;28;20289;-71
2021/07/02 05:13:14;;;;;;;11.25;10.25;;;18.40;99.90;;;18.76;83.18;101526.09;5116442;28;20043;-71
2021/07/02 05:15:43;;;;;;;12.32;11.10;;;18.40;99.90;;;18.78;83.01;101535.84;5116387;28;20043;-71
2021/07/02 05:18:11;;;;;;;11.90;10.77;;;18.40;99.90;;;18.78;83.00;101532.28;5097196;28;20558;-71
2021/07/02 05:20:43;;;;;;;12.68;10.32;;;18.50;99.90;;;18.80;83.24;101536.69;5116181;28;20047;-71
2021/07/02 05:23:13;;;;;;;11.32;10.23;;;18.50;99.90;;;18.78;83.33;101535.84;5115891;28;20564;-71
2021/07/02 05:25:42;;;;;;;10.98;9.85;;;18.50;99.90;;;18.81;83.11;101533.06;5116195;28;20048;-71
2021/07/02 05:28:10;;;;;;;8.98;8.07;;;18.50;99.90;;;18.82;83.37;101531.28;5116122;28;20104;-71
2021/07/02 05:30:38;;;;;;;11.55;8.68;;;18.50;99.90;;;18.79;83.30;101532.22;5115855;28;20067;-72
2021/07/02 05:33:07;;;;;;;9.48;8.63;;;18.50;99.90;;;18.82;83.09;101528.59;5115865;28;20497;-72
2021/07/02 05:35:36;;;;;;;8.63;7.53;;;18.50;99.90;;;18.87;83.33;101530.22;5115929;28;20036;-71
2021/07/02 05:38:04;;;;;;;10.73;7.50;;;18.50;99.90;;;18.86;83.12;101536.53;5115930;28;20039;-72
2021/07/02 05:40:34;;;;;;;8.68;7.55;;;18.60;99.90;;;18.66;83.95;101525.47;5097564;28;20043;-72
2021/07/02 05:43:03;;;;;;;8.63;7.80;;;18.40;99.90;;;18.73;84.18;101526.19;5115814;28;20048;-71
2021/07/02 05:45:31;;;;;;;10.27;7.90;;;18.40;99.90;;;18.77;84.26;101538.59;5115750;28;20137;-71
2021/07/02 05:48:03;;;;;;;10.48;7.95;;;18.40;99.90;;;18.75;84.39;101538.63;5115806;28;20102;-72
2021/07/02 05:50:31;;;;;;;10.73;9.13;;;18.40;99.90;;;18.72;84.63;101532.44;5115948;28;20063;-71
2021/07/02 05:53:00;;;;;;;11.45;9.30;;;18.40;99.90;;;18.58;85.43;101535.50;5115545;28;20104;-72
2021/07/02 05:55:29;;;;;;;16.50;10.07;;;18.30;99.90;;;18.59;85.29;101529.22;5115494;28;20072;-72
2021/07/02 05:58:00;;;;;;;16.42;13.05;;;18.30;99.90;;;18.39;85.63;101544.06;5115309;28;20043;-72
2021/07/02 06:00:29;;;;;;;18.05;13.60;;;18.10;99.90;;;18.35;86.40;101537.88;5115525;28;20052;-72
2021/07/02 06:02:57;;;;;;;16.38;14.57;;;18.00;99.90;;;18.26;86.77;101530.06;5115390;28;20067;-72
2021/07/02 06:05:26;;;;;;;18.35;14.52;;;18.00;99.90;;;18.40;87.17;101552.03;5115398;28;20054;-71
2021/07/02 06:07:56;;;;;;;17.23;13.65;;;18.00;99.90;;;18.39;87.35;101542.22;5115036;28;20096;-71
2021/07/02 06:10:26;;;;;;;18.65;15.00;;;18.10;99.90;;;18.15;87.46;101516.09;5115389;28;20044;-71
2021/07/02 06:12:55;;;;;;;20.25;14.98;;;18.00;99.90;;;18.39;87.76;101547.59;5115286;28;20044;-71
2021/07/02 06:15:26;;;;;;;18.77;14.10;;;18.00;99.90;;;18.26;87.61;101546.13;5115162;28;20113;-71
2021/07/02 06:17:54;;;;;;;19.67;15.07;;;18.00;99.90;;;18.14;88.74;101551.78;5115241;28;20051;-71
2021/07/02 06:20:25;;;;;;;19.52;13.85;;;17.90;99.90;;;18.24;89.08;101555.13;5115157;28;20049;-71
2021/07/02 06:22:53;;;;;;;;;;;17.90;99.90;;;18.33;88.46;101558.44;5115503;28;20074;-71
2021/07/02 06:25:21;;;;;;;19.30;14.52;;;18.00;99.90;;;18.37;88.79;101554.78;5096516;28;20360;-71
2021/07/02 06:27:50;;;;;;;20.42;14.75;;;18.00;99.90;;;18.31;88.67;101560.28;5114884;28;20048;-71
2021/07/02 06:30:19;;;;;;;20.52;15.38;;;18.00;99.90;;;18.30;89.29;101563.91;5114717;28;20050;-71
2021/07/02 06:32:49;;;;;;;19.25;15.23;;;18.00;99.90;;;18.29;88.71;101561.25;5114951;28;20082;-71
2021/07/02 06:35:18;;;;;;;25.02;19.45;;;18.00;99.90;;;18.29;88.04;101559.44;5114839;28;20048;-71
2021/07/02 06:37:50;;;;;;;31.92;20.48;;;18.10;99.90;;;18.09;89.15;101571.56;5096466;28;20469;-71
2021/07/02 06:40:20;;;;;;;33.45;21.75;;;17.80;99.90;;;18.12;89.26;101568.84;5114767;28;20044;-71
2021/07/02 06:42:49;;;;;;;26.08;20.65;;;17.80;99.90;;;18.00;89.23;101541.41;5114720;28;20035;-71
2021/07/02 06:45:18;;;;;;;28.02;20.75;;;17.90;99.90;;;18.22;89.54;101571.25;5114594;28;20044;-71
2021/07/02 06:47:59;;;;;;;28.88;21.63;;;17.90;99.90;;;18.33;89.39;101579.88;5096559;28;20386;-71
2021/07/02 06:50:29;;;;;;;34.55;22.58;;;18.00;99.90;;;18.31;89.40;101571.00;5114619;28;20055;-71
2021/07/02 06:52:59;;;;;;;30.05;21.95;;;18.00;99.90;;;18.32;89.09;101572.78;5096266;28;20047;-71
2021/07/02 06:55:28;;;;;;;30.60;21.73;;;18.00;99.90;;;18.41;89.13;101580.56;5114287;28;20050;-71
2021/07/02 06:57:56;;;;;;;29.60;21.58;;;18.10;99.90;;;18.42;88.88;101584.16;5114109;28;20092;-71
2021/07/02 07:00:25;;;;;;;32.22;22.75;;;18.10;99.90;;;18.36;88.49;101579.81;5114561;28;20043;-71
2021/07/02 07:02:56;;;;;;;32.38;21.95;;;18.20;99.90;;;18.50;88.51;101590.22;5114157;28;20067;-71
2021/07/02 07:05:24;;;;;;;29.80;21.58;;;18.20;99.90;;;18.43;88.37;101597.53;5096011;28;20105;-71
2021/07/02 07:07:53;;;;;;;28.42;20.40;;;18.30;99.90;;;18.54;87.89;101581.19;5114216;28;20096;-71
2021/07/02 07:10:22;;;;;;;29.95;21.05;;;18.30;99.90;;;18.55;87.84;101573.09;5095885;28;20085;-71
2021/07/02 07:12:50;;;;;;;32.83;21.60;;;18.30;99.90;;;18.63;88.28;101579.16;5114155;28;20069;-71
2021/07/02 07:15:19;;;;;;;30.05;19.98;;;18.30;99.90;;;18.81;87.70;101588.50;5114072;28;20070;-71
2021/07/02 07:17:47;;;;;;;28.88;20.13;;;18.50;99.90;;;18.89;86.89;101586.50;5114033;28;20051;-71
2021/07/02 07:20:20;;;;;;;25.75;18.95;;;18.60;99.90;;;18.92;87.09;101587.31;5095799;28;20047;-71
2021/07/02 07:22:49;;;;;;;30.10;20.35;;;18.70;99.90;;;18.88;87.05;101556.13;5113682;28;20490;-71
2021/07/02 07:25:20;;;;;;;27.38;19.02;;;18.80;99.90;;;19.24;86.32;101588.22;5113711;28;20075;-71
2021/07/02 07:27:49;;;;;;;32.05;19.15;;;19.00;99.90;;;18.91;86.28;101510.44;5113974;28;20044;-71
2021/07/02 07:30:18;;;;;;;26.23;18.20;;;19.20;99.90;;;19.41;86.11;101596.69;5113593;28;20096;-71
2021/07/02 07:32:51;;;;;;;25.67;16.55;;;19.20;99.90;;;19.55;84.54;101599.84;5114104;28;20059;-71
2021/07/02 07:35:24;;;;;;;21.73;15.07;;;19.30;99.90;;;19.40;84.24;101594.91;5113551;28;20036;-71
2021/07/02 07:37:54;;;;;;;27.63;15.07;;;19.20;99.90;;;19.56;83.09;101596.22;5113708;28;20051;-71
2021/07/02 07:40:25;;;;;;;18.35;13.63;;;19.30;99.90;;;19.53;82.58;101601.72;5095168;28;20079;-71
2021/07/02 07:42:54;;;;;;;17.75;13.80;;;19.30;99.90;;;19.61;81.61;101599.66;5113109;28;20155;-71
2021/07/02 07:45:24;;;;;;;19.88;13.85;;;19.30;99.90;;;19.47;81.49;101589.31;5095125;28;20114;-71
2021/07/02 07:47:53;;;;;;;23.25;15.23;;;19.30;99.90;;;19.54;82.29;101611.50;5113592;28;20055;-71
2021/07/02 07:50:24;;;;;;;22.77;14.90;;;19.20;99.90;;;19.51;82.42;101619.66;5113793;28;20048;-72
2021/07/02 07:52:58;;;;;;;20.20;13.32;;;19.30;99.90;;;19.43;82.71;101613.63;5113582;28;20097;-71
2021/07/02 07:55:27;;;;;;;21.17;13.15;;;19.20;99.90;;;19.47;82.74;101605.41;5113156;28;20062;-71
2021/07/02 07:57:57;;;;;;;20.40;13.13;;;19.20;99.90;;;19.50;82.44;101617.88;5113280;28;20047;-72
2021/07/02 08:00:26;;;;;;;20.08;12.45;;;19.20;99.90;;;19.59;81.98;101615.81;5113028;28;20512;-72
2021/07/02 08:02:54;;;;;;;17.70;11.68;;;19.30;99.90;;;19.42;81.86;101619.91;5113262;28;20066;-72
2021/07/02 08:05:24;;;;;;;19.70;12.27;;;19.20;99.90;;;19.48;81.68;101617.94;5094998;28;20861;-72
2021/07/02 08:07:54;;;;;;;17.05;11.77;;;19.20;99.90;;;19.65;81.31;101620.09;5113028;28;20492;-72
2021/07/02 08:10:25;;;;;;;17.10;12.82;;;19.40;99.90;;;19.35;81.51;101629.06;5113570;28;20104;-71
2021/07/02 08:12:54;;;;;;;17.15;11.85;;;19.20;99.90;;;19.52;81.14;101634.81;5113319;28;20044;-71
2021/07/02 08:15:23;;;;;;;17.20;11.43;;;19.30;99.90;;;19.40;81.04;101619.94;5094681;28;20082;-71
2021/07/02 08:17:51;;;;;;;17.85;12.50;;;19.30;99.90;;;19.49;81.18;101633.09;5113480;28;20047;-71
2021/07/02 08:20:19;;;;;;;19.48;11.27;;;19.20;99.90;;;19.35;81.52;101629.94;5094967;28;20048;-71
2021/07/02 08:22:49;;;;;;;13.90;11.25;;;19.20;99.90;;;19.30;82.04;101639.88;5112911;28;20093;-71
2021/07/02 08:25:18;;;;;;;14.90;10.77;;;19.00;99.90;;;19.41;81.75;101648.56;5094497;28;20043;-71
2021/07/02 08:30:29;;;;;;;13.82;10.52;;;19.10;99.90;;;19.28;82.18;101651.59;5090116;28;20060;-71
2021/07/02 08:32:57;;;;;;;12.43;10.13;;;19.00;99.90;;;19.34;82.33;101648.75;5113234;28;20098;-71
2021/07/02 08:35:26;;;;;;;12.93;10.63;;;19.10;99.90;;;19.22;82.43;101649.06;5112804;28;20515;-71
2021/07/02 08:37:58;;;;;;;15.02;11.95;;;19.00;99.90;;;19.13;82.45;101650.19;5112891;28;20556;-72
2021/07/02 08:40:27;;;;;;;16.92;11.57;;;18.90;99.90;;;19.00;83.30;101647.88;5094771;28;20105;-71
2021/07/02 08:42:56;;;;;;;15.90;12.00;;;18.70;99.90;;;18.85;83.46;101633.94;5113235;28;20101;-71
2021/07/02 08:45:24;;;;;;;14.82;12.63;;;18.70;99.90;;;19.02;83.91;101651.41;5112925;28;20089;-71
2021/07/02 08:47:54;;;;;;;14.65;12.02;;;18.70;99.90;;;18.71;83.84;101613.78;5094586;28;20052;-71
2021/07/02 08:50:26;;;;;;;15.20;12.45;;;18.70;99.90;;;19.04;83.90;101655.81;5094651;28;20048;-71
2021/07/02 08:52:54;;;;;;;;;;;18.80;99.90;;;19.08;83.72;101654.81;5113371;28;20047;-71
2021/07/02 08:55:24;;;;;;;16.17;13.25;;;18.80;99.90;;;19.02;83.68;101668.38;5116061;28;20689;-71
2021/07/02 08:57:53;;;;;;;20.23;14.45;;;18.80;99.90;;;18.82;83.25;101668.00;5116734;28;20051;-72
2021/07/02 09:00:22;;;;;;;23.58;15.32;;;18.70;99.90;;;18.72;83.79;101653.97;5098111;28;20088;-72
2021/07/02 09:02:51;;;;;;;25.48;16.10;;;18.60;99.90;;;18.88;83.75;101679.47;5116582;28;20049;-72
2021/07/02 09:05:35;;;;;;;28.92;16.63;;;18.70;99.90;;;19.05;83.95;101667.44;5116601;28;20040;-72
2021/07/02 09:08:14;;;;;;;28.60;18.35;;;18.70;99.90;;;19.04;83.83;101663.88;5116160;28;20071;-72
2021/07/02 09:10:48;;;;;;;24.75;16.63;;;18.70;99.90;;;19.00;83.29;101675.59;5116279;28;20126;-71
2021/07/02 09:13:17;;;;;;;25.00;16.95;;;18.70;99.90;;;19.12;82.39;101663.66;5116345;28;20055;-71
2021/07/02 09:15:47;;;;;;;25.17;16.80;;;18.80;99.90;;;19.17;82.48;101650.97;5116363;28;20043;-71
2021/07/02 09:18:18;;;;;;;27.33;16.92;;;18.90;99.90;;;19.29;82.04;101666.75;5116133;28;20425;-71
2021/07/02 09:20:47;;;;;;;26.10;18.20;;;19.10;99.90;;;19.53;81.78;101669.66;5116048;28;20511;-71
2021/07/02 09:23:18;;;;;;;20.47;15.27;;;19.30;99.90;;;19.65;80.82;101672.00;5116464;28;20050;-71
2021/07/02 09:25:54;;;;;;;23.92;16.35;;;19.40;99.90;;;19.53;81.38;101674.19;5115904;28;20338;-71
2021/07/02 09:28:31;;;;;;;21.38;15.30;;;19.40;99.90;;;19.45;80.52;101679.72;5098175;28;20578;-70
2021/07/02 09:31:00;;;;;;;21.83;15.50;;;19.30;99.90;;;19.59;80.35;101674.84;5116050;28;20056;-71
2021/07/02 09:33:30;;;;;;;23.00;15.32;;;19.40;99.90;;;19.45;79.91;101684.25;5097790;28;20456;-71
2021/07/02 09:36:00;;;;;;;21.92;16.25;;;19.30;99.90;;;19.34;80.30;101679.16;5115859;28;20044;-71
2021/07/02 09:38:37;;;;;;;21.80;15.65;;;19.20;99.90;;;19.43;81.01;101692.34;5115646;28;20096;-71
2021/07/02 09:41:11;;;;;;;24.98;17.85;;;19.20;99.90;;;19.42;80.99;101687.88;5097734;28;20070;-70
2021/07/02 09:43:39;;;;;;;24.67;17.63;;;19.20;99.90;;;19.37;80.50;101692.50;5097414;28;20108;-70
2021/07/02 09:46:09;;;;;;;23.92;17.70;;;19.10;99.90;;;19.47;81.16;101698.50;5115580;28;20040;-70
2021/07/02 09:48:43;;;;;;;25.77;17.25;;;19.20;99.90;;;19.44;80.91;101699.44;5115909;28;20043;-71
2021/07/02 09:51:13;;;;;;;25.92;17.48;;;19.20;99.90;;;19.44;80.96;101701.25;5115672;28;20039;-71
2021/07/02 09:53:42;;;;;;;25.48;17.48;;;19.20;99.90;;;19.52;80.32;101705.50;5115593;28;20054;-71
2021/07/02 09:56:20;;;;;;;22.67;16.40;;;19.20;99.90;;;19.45;80.50;101705.72;5115284;28;20040;-70
2021/07/02 09:58:48;;;;;;;20.40;15.57;;;19.20;99.90;;;19.43;80.32;101708.44;5115641;28;20112;-70
2021/07/02 10:01:27;;;;;;;22.25;15.48;;;19.20;99.90;;;19.42;80.29;101708.47;5115164;28;20032;-71
2021/07/02 10:04:09;;;;;;;22.35;15.98;;;19.20;99.90;;;19.49;80.42;101713.59;5115376;28;20046;-71
2021/07/02 10:06:37;;;;;;;22.45;16.70;;;19.30;99.90;;;19.39;81.05;101716.59;5115065;28;20048;-71
2021/07/02 10:09:06;;;;;;;24.98;17.67;;;19.20;99.90;;;19.32;80.81;101714.94;5097101;28;20075;-71
2021/07/02 10:11:37;;;;;;;25.83;17.45;;;19.10;99.90;;;19.31;81.15;101708.72;5115299;28;20059;-71
2021/07/02 10:14:06;;;;;;;23.15;16.95;;;19.10;99.90;;;19.37;81.00;101713.97;5115271;28;20441;-70
2021/07/02 10:16:36;;;;;;;24.95;16.83;;;19.10;99.90;;;19.42;81.17;101719.19;5115183;28;20074;-72